sensor_id;sensor_type;location;lat;lon;timestamp;temperature;humidity
35962;DHT22;22044;48.298;10.008;2022-10-15T00:01:41;12.50;99.90
35962;DHT22;22044;48.298;10.008;2022-10-15T00:04:29;12.50;99.90
35962;DHT22;22044;48.298;10.008;2022-10-15T00:07:15;12.50;99.90
35962;DHT22;22044;48.298;10.008;2022-10-15T00:10:03;12.50;99.90
35962;DHT22;22044;48.298;10.008;2022-10-15T00:12:48;12.50;99.90
35962;DHT22;22044;48.298;10.008;2022-10-15T00:15:35;12.60;99.90
35962;DHT22;22044;48.298;10.008;2022-10-15T00:18:21;12.60;99.90
35962;DHT22;22044;48.298;10.008;2022-10-15T00:21:07;12.60;99.90
35962;DHT22;22044;48.298;10.008;2022-10-15T00:23:52;12.60;99.90
35962;DHT22;22044;48.298;10.008;2022-10-15T00:26:39;12.60;99.90
35962;DHT22;22044;48.298;10.008;2022-10-15T00:29:27;12.60;99.90
35962;DHT22;22044;48.298;10.008;2022-10-15T00:32:13;12.60;99.90
35962;DHT22;22044;48.298;10.008;2022-10-15T00:34:58;12.60;99.90
35962;DHT22;22044;48.298;10.008;2022-10-15T00:37:44;12.60;99.90
35962;DHT22;22044;48.298;10.008;2022-10-15T00:40:30;12.60;99.90
35962;DHT22;22044;48.298;10.008;2022-10-15T00:43:35;12.60;99.90
35962;DHT22;22044;48.298;10.008;2022-10-15T00:46:24;12.60;99.90
35962;DHT22;22044;48.298;10.008;2022-10-15T00:49:16;12.70;99.90
35962;DHT22;22044;48.298;10.008;2022-10-15T00:52:06;12.70;99.90
35962;DHT22;22044;48.298;10.008;2022-10-15T00:54:58;12.70;99.90
35962;DHT22;22044;48.298;10.008;2022-10-15T00:57:45;12.70;99.90
35962;DHT22;22044;48.298;10.008;2022-10-15T01:00:34;12.70;99.90
35962;DHT22;22044;48.298;10.008;2022-10-15T01:03:20;12.70;99.90
35962;DHT22;22044;48.298;10.008;2022-10-15T01:06:06;12.60;99.90
35962;DHT22;22044;48.298;10.008;2022-10-15T01:08:51;12.70;99.90
35962;DHT22;22044;48.298;10.008;2022-10-15T01:11:39;12.70;99.90
35962;DHT22;22044;48.298;10.008;2022-10-15T01:14:36;12.70;99.90
35962;DHT22;22044;48.298;10.008;2022-10-15T01:17:28;12.70;99.90
35962;DHT22;22044;48.298;10.008;2022-10-15T01:27:30;12.80;99.90
35962;DHT22;22044;48.298;10.008;2022-10-15T01:30:26;12.80;99.90
35962;DHT22;22044;48.298;10.008;2022-10-15T01:33:25;12.80;99.90
35962;DHT22;22044;48.298;10.008;2022-10-15T01:36:16;12.80;99.90
35962;DHT22;22044;48.298;10.008;2022-10-15T01:39:11;12.80;99.90
35962;DHT22;22044;48.298;10.008;2022-10-15T01:42:01;12.80;99.90
35962;DHT22;22044;48.298;10.008;2022-10-15T01:44:50;12.80;99.90
35962;DHT22;22044;48.298;10.008;2022-10-15T01:47:55;12.80;99.90
35962;DHT22;22044;48.298;10.008;2022-10-15T01:50:45;12.80;99.90
35962;DHT22;22044;48.298;10.008;2022-10-15T01:53:35;12.80;99.90
35962;DHT22;22044;48.298;10.008;2022-10-15T01:56:22;12.80;99.90
35962;DHT22;22044;48.298;10.008;2022-10-15T01:59:09;12.80;99.90
35962;DHT22;22044;48.298;10.008;2022-10-15T02:01:55;12.80;99.90
35962;DHT22;22044;48.298;10.008;2022-10-15T02:04:42;12.80;99.90
35962;DHT22;22044;48.298;10.008;2022-10-15T02:07:37;12.80;99.90
35962;DHT22;22044;48.298;10.008;2022-10-15T02:10:28;12.90;99.90
35962;DHT22;22044;48.298;10.008;2022-10-15T02:13:23;12.90;99.90
35962;DHT22;22044;48.298;10.008;2022-10-15T02:16:12;12.90;99.90
35962;DHT22;22044;48.298;10.008;2022-10-15T02:19:13;12.90;99.90
35962;DHT22;22044;48.298;10.008;2022-10-15T02:22:05;13.00;99.90
35962;DHT22;22044;48.298;10.008;2022-10-15T02:24:55;13.00;99.90
35962;DHT22;22044;48.298;10.008;2022-10-15T02:27:43;13.00;99.90
35962;DHT22;22044;48.298;10.008;2022-10-15T02:30:30;13.00;99.90
35962;DHT22;22044;48.298;10.008;2022-10-15T02:33:17;13.10;99.90
35962;DHT22;22044;48.298;10.008;2022-10-15T02:36:06;13.10;99.90
35962;DHT22;22044;48.298;10.008;2022-10-15T02:38:55;13.10;99.90
35962;DHT22;22044;48.298;10.008;2022-10-15T02:41:42;13.10;99.90
35962;DHT22;22044;48.298;10.008;2022-10-15T02:44:30;13.10;99.90
35962;DHT22;22044;48.298;10.008;2022-10-15T02:47:16;13.10;99.90
35962;DHT22;22044;48.298;10.008;2022-10-15T02:50:05;13.20;99.90
35962;DHT22;22044;48.298;10.008;2022-10-15T02:52:51;13.20;99.90
35962;DHT22;22044;48.298;10.008;2022-10-15T02:55:38;13.20;99.90
35962;DHT22;22044;48.298;10.008;2022-10-15T02:58:23;13.20;99.90
35962;DHT22;22044;48.298;10.008;2022-10-15T03:01:09;13.20;99.90
35962;DHT22;22044;48.298;10.008;2022-10-15T03:03:55;13.20;99.90
35962;DHT22;22044;48.298;10.008;2022-10-15T03:06:42;13.20;99.90
35962;DHT22;22044;48.298;10.008;2022-10-15T03:09:28;13.30;99.90
35962;DHT22;22044;48.298;10.008;2022-10-15T03:12:15;13.30;99.90
35962;DHT22;22044;48.298;10.008;2022-10-15T03:15:00;13.30;99.90
35962;DHT22;22044;48.298;10.008;2022-10-15T03:17:46;13.30;99.90
35962;DHT22;22044;48.298;10.008;2022-10-15T03:20:35;13.30;99.90
35962;DHT22;22044;48.298;10.008;2022-10-15T03:23:21;13.40;99.90
35962;DHT22;22044;48.298;10.008;2022-10-15T03:26:13;13.40;99.90
35962;DHT22;22044;48.298;10.008;2022-10-15T03:29:01;13.40;99.90
35962;DHT22;22044;48.298;10.008;2022-10-15T03:32:09;13.40;99.90
35962;DHT22;22044;48.298;10.008;2022-10-15T03:34:55;13.50;99.90
35962;DHT22;22044;48.298;10.008;2022-10-15T03:37:42;13.50;99.90
35962;DHT22;22044;48.298;10.008;2022-10-15T03:40:28;13.50;99.90
35962;DHT22;22044;48.298;10.008;2022-10-15T03:43:18;13.50;99.90
35962;DHT22;22044;48.298;10.008;2022-10-15T03:46:06;13.50;99.90
35962;DHT22;22044;48.298;10.008;2022-10-15T03:48:56;13.50;99.90
35962;DHT22;22044;48.298;10.008;2022-10-15T03:51:42;13.50;99.90
35962;DHT22;22044;48.298;10.008;2022-10-15T03:54:29;13.50;99.90
35962;DHT22;22044;48.298;10.008;2022-10-15T03:57:15;13.50;99.90
35962;DHT22;22044;48.298;10.008;2022-10-15T04:00:11;13.50;99.90
35962;DHT22;22044;48.298;10.008;2022-10-15T04:02:58;13.50;99.90
35962;DHT22;22044;48.298;10.008;2022-10-15T04:05:49;13.50;99.90
35962;DHT22;22044;48.298;10.008;2022-10-15T04:08:36;13.60;99.90
35962;DHT22;22044;48.298;10.008;2022-10-15T04:11:36;13.50;99.90
35962;DHT22;22044;48.298;10.008;2022-10-15T04:14:22;13.50;99.90
35962;DHT22;22044;48.298;10.008;2022-10-15T04:17:07;13.60;99.90
35962;DHT22;22044;48.298;10.008;2022-10-15T04:19:55;13.60;99.90
35962;DHT22;22044;48.298;10.008;2022-10-15T04:22:40;13.60;99.90
35962;DHT22;22044;48.298;10.008;2022-10-15T04:25:25;13.60;99.90
35962;DHT22;22044;48.298;10.008;2022-10-15T04:28:11;13.60;99.90
35962;DHT22;22044;48.298;10.008;2022-10-15T04:30:57;13.60;99.90
35962;DHT22;22044;48.298;10.008;2022-10-15T04:33:43;13.60;99.90
35962;DHT22;22044;48.298;10.008;2022-10-15T04:36:34;13.60;99.90
35962;DHT22;22044;48.298;10.008;2022-10-15T04:39:45;13.60;99.90
35962;DHT22;22044;48.298;10.008;2022-10-15T04:42:32;13.60;99.90
35962;DHT22;22044;48.298;10.008;2022-10-15T04:45:20;13.60;99.90
35962;DHT22;22044;48.298;10.008;2022-10-15T04:48:05;13.70;99.90
35962;DHT22;22044;48.298;10.008;2022-10-15T04:50:53;13.70;99.90
35962;DHT22;22044;48.298;10.008;2022-10-15T04:53:41;13.70;99.90
35962;DHT22;22044;48.298;10.008;2022-10-15T04:56:27;13.70;99.90
35962;DHT22;22044;48.298;10.008;2022-10-15T04:59:13;13.80;99.90
35962;DHT22;22044;48.298;10.008;2022-10-15T05:02:18;13.80;99.90
35962;DHT22;22044;48.298;10.008;2022-10-15T05:05:10;13.80;99.90
35962;DHT22;22044;48.298;10.008;2022-10-15T05:08:05;13.80;99.90
35962;DHT22;22044;48.298;10.008;2022-10-15T05:11:10;13.80;99.90
35962;DHT22;22044;48.298;10.008;2022-10-15T05:13:57;13.80;99.90
35962;DHT22;22044;48.298;10.008;2022-10-15T05:16:43;13.80;99.90
35962;DHT22;22044;48.298;10.008;2022-10-15T05:19:30;13.80;99.90
35962;DHT22;22044;48.298;10.008;2022-10-15T05:22:15;13.80;99.90
35962;DHT22;22044;48.298;10.008;2022-10-15T05:25:08;13.80;99.90
35962;DHT22;22044;48.298;10.008;2022-10-15T05:27:56;13.80;99.90
35962;DHT22;22044;48.298;10.008;2022-10-15T05:30:42;13.80;99.90
35962;DHT22;22044;48.298;10.008;2022-10-15T05:33:29;13.80;99.90
35962;DHT22;22044;48.298;10.008;2022-10-15T05:36:17;13.80;99.90
35962;DHT22;22044;48.298;10.008;2022-10-15T05:39:05;13.80;99.90
35962;DHT22;22044;48.298;10.008;2022-10-15T05:41:57;13.80;99.90
35962;DHT22;22044;48.298;10.008;2022-10-15T05:44:55;13.90;99.90
35962;DHT22;22044;48.298;10.008;2022-10-15T05:47:41;13.90;99.90
35962;DHT22;22044;48.298;10.008;2022-10-15T05:50:33;13.90;99.90
35962;DHT22;22044;48.298;10.008;2022-10-15T05:53:21;13.90;99.90
35962;DHT22;22044;48.298;10.008;2022-10-15T05:56:10;13.90;99.90
35962;DHT22;22044;48.298;10.008;2022-10-15T05:58:56;13.90;99.90
35962;DHT22;22044;48.298;10.008;2022-10-15T06:01:46;13.90;99.90
35962;DHT22;22044;48.298;10.008;2022-10-15T06:04:32;13.90;99.90
35962;DHT22;22044;48.298;10.008;2022-10-15T06:07:17;14.00;99.90
35962;DHT22;22044;48.298;10.008;2022-10-15T06:10:03;13.90;99.90
35962;DHT22;22044;48.298;10.008;2022-10-15T06:12:51;13.90;99.90
35962;DHT22;22044;48.298;10.008;2022-10-15T06:15:38;13.90;99.90
35962;DHT22;22044;48.298;10.008;2022-10-15T06:18:27;13.90;99.90
35962;DHT22;22044;48.298;10.008;2022-10-15T06:21:14;13.80;99.90
35962;DHT22;22044;48.298;10.008;2022-10-15T06:24:00;13.80;99.90
35962;DHT22;22044;48.298;10.008;2022-10-15T06:26:48;13.90;99.90
35962;DHT22;22044;48.298;10.008;2022-10-15T06:29:34;13.90;99.90
35962;DHT22;22044;48.298;10.008;2022-10-15T06:32:19;13.90;99.90
35962;DHT22;22044;48.298;10.008;2022-10-15T06:35:07;13.90;99.90
35962;DHT22;22044;48.298;10.008;2022-10-15T06:37:52;13.90;99.90
35962;DHT22;22044;48.298;10.008;2022-10-15T06:40:38;13.90;99.90
35962;DHT22;22044;48.298;10.008;2022-10-15T06:43:24;13.90;99.90
35962;DHT22;22044;48.298;10.008;2022-10-15T06:46:10;14.00;99.90
35962;DHT22;22044;48.298;10.008;2022-10-15T06:48:55;14.00;99.90
35962;DHT22;22044;48.298;10.008;2022-10-15T06:51:42;14.00;99.90
35962;DHT22;22044;48.298;10.008;2022-10-15T06:54:28;14.00;99.90
35962;DHT22;22044;48.298;10.008;2022-10-15T06:57:17;14.00;99.90
35962;DHT22;22044;48.298;10.008;2022-10-15T07:00:04;14.00;99.90
35962;DHT22;22044;48.298;10.008;2022-10-15T07:02:50;13.90;99.90
35962;DHT22;22044;48.298;10.008;2022-10-15T07:05:36;14.00;99.90
35962;DHT22;22044;48.298;10.008;2022-10-15T07:08:24;14.00;99.90
35962;DHT22;22044;48.298;10.008;2022-10-15T07:11:09;14.00;99.90
35962;DHT22;22044;48.298;10.008;2022-10-15T07:13:55;14.00;99.90
35962;DHT22;22044;48.298;10.008;2022-10-15T07:16:41;14.10;99.90
35962;DHT22;22044;48.298;10.008;2022-10-15T07:19:27;14.10;99.90
35962;DHT22;22044;48.298;10.008;2022-10-15T07:22:12;14.10;99.90
35962;DHT22;22044;48.298;10.008;2022-10-15T07:24:59;14.10;99.90
35962;DHT22;22044;48.298;10.008;2022-10-15T07:27:45;14.10;99.90
35962;DHT22;22044;48.298;10.008;2022-10-15T07:30:31;14.10;99.90
35962;DHT22;22044;48.298;10.008;2022-10-15T07:33:17;14.10;99.90
35962;DHT22;22044;48.298;10.008;2022-10-15T07:36:15;14.10;99.90
35962;DHT22;22044;48.298;10.008;2022-10-15T07:39:01;14.20;99.90
35962;DHT22;22044;48.298;10.008;2022-10-15T07:41:48;14.20;99.90
35962;DHT22;22044;48.298;10.008;2022-10-15T07:44:34;14.20;99.90
35962;DHT22;22044;48.298;10.008;2022-10-15T07:47:23;14.20;99.90
35962;DHT22;22044;48.298;10.008;2022-10-15T07:50:09;14.20;99.90
35962;DHT22;22044;48.298;10.008;2022-10-15T07:52:54;14.30;99.90
35962;DHT22;22044;48.298;10.008;2022-10-15T07:55:40;14.30;99.90
35962;DHT22;22044;48.298;10.008;2022-10-15T07:58:28;14.30;99.90
35962;DHT22;22044;48.298;10.008;2022-10-15T08:01:14;14.30;99.90
35962;DHT22;22044;48.298;10.008;2022-10-15T08:04:00;14.30;99.90
35962;DHT22;22044;48.298;10.008;2022-10-15T08:06:45;14.30;99.90
35962;DHT22;22044;48.298;10.008;2022-10-15T08:09:32;14.30;99.90
35962;DHT22;22044;48.298;10.008;2022-10-15T08:12:18;14.20;99.90
35962;DHT22;22044;48.298;10.008;2022-10-15T08:15:06;14.20;99.90
35962;DHT22;22044;48.298;10.008;2022-10-15T08:17:52;14.30;99.90
35962;DHT22;22044;48.298;10.008;2022-10-15T08:20:38;14.30;99.90
35962;DHT22;22044;48.298;10.008;2022-10-15T08:23:27;14.30;99.90
35962;DHT22;22044;48.298;10.008;2022-10-15T08:26:12;14.20;99.90
35962;DHT22;22044;48.298;10.008;2022-10-15T08:28:58;14.30;99.90
35962;DHT22;22044;48.298;10.008;2022-10-15T08:31:45;14.20;99.90
35962;DHT22;22044;48.298;10.008;2022-10-15T08:34:30;14.30;99.90
35962;DHT22;22044;48.298;10.008;2022-10-15T08:37:16;14.30;99.90
35962;DHT22;22044;48.298;10.008;2022-10-15T08:40:02;14.30;99.90
35962;DHT22;22044;48.298;10.008;2022-10-15T08:42:47;14.30;99.90
35962;DHT22;22044;48.298;10.008;2022-10-15T08:45:38;14.30;99.90
35962;DHT22;22044;48.298;10.008;2022-10-15T08:48:31;14.40;99.90
35962;DHT22;22044;48.298;10.008;2022-10-15T08:51:19;14.50;99.90
35962;DHT22;22044;48.298;10.008;2022-10-15T08:54:09;14.60;99.90
35962;DHT22;22044;48.298;10.008;2022-10-15T08:57:07;14.60;99.90
35962;DHT22;22044;48.298;10.008;2022-10-15T09:00:00;14.60;99.90
35962;DHT22;22044;48.298;10.008;2022-10-15T09:02:55;14.70;99.90
35962;DHT22;22044;48.298;10.008;2022-10-15T09:05:47;14.80;99.90
35962;DHT22;22044;48.298;10.008;2022-10-15T09:08:40;14.80;99.90
35962;DHT22;22044;48.298;10.008;2022-10-15T09:11:39;14.90;99.90
35962;DHT22;22044;48.298;10.008;2022-10-15T09:14:28;14.90;99.90
35962;DHT22;22044;48.298;10.008;2022-10-15T09:17:20;15.00;99.90
35962;DHT22;22044;48.298;10.008;2022-10-15T09:20:13;15.10;99.90
35962;DHT22;22044;48.298;10.008;2022-10-15T09:23:02;15.20;99.90
35962;DHT22;22044;48.298;10.008;2022-10-15T09:25:56;15.20;99.90
35962;DHT22;22044;48.298;10.008;2022-10-15T09:28:46;15.20;99.90
35962;DHT22;22044;48.298;10.008;2022-10-15T09:31:42;15.30;99.90
35962;DHT22;22044;48.298;10.008;2022-10-15T09:34:34;15.40;99.90
35962;DHT22;22044;48.298;10.008;2022-10-15T09:37:25;15.50;99.90
35962;DHT22;22044;48.298;10.008;2022-10-15T09:40:33;15.60;99.90
35962;DHT22;22044;48.298;10.008;2022-10-15T09:43:23;15.70;99.90
35962;DHT22;22044;48.298;10.008;2022-10-15T09:46:11;15.80;99.90
35962;DHT22;22044;48.298;10.008;2022-10-15T09:49:02;15.80;99.90
35962;DHT22;22044;48.298;10.008;2022-10-15T09:51:58;15.90;99.90
35962;DHT22;22044;48.298;10.008;2022-10-15T09:54:53;15.80;99.90
35962;DHT22;22044;48.298;10.008;2022-10-15T09:57:46;15.90;99.90
35962;DHT22;22044;48.298;10.008;2022-10-15T10:00:52;16.00;99.90
35962;DHT22;22044;48.298;10.008;2022-10-15T10:03:38;16.10;99.90
35962;DHT22;22044;48.298;10.008;2022-10-15T10:06:24;16.20;99.90
35962;DHT22;22044;48.298;10.008;2022-10-15T10:09:15;16.30;99.90
35962;DHT22;22044;48.298;10.008;2022-10-15T10:12:04;16.30;99.90
35962;DHT22;22044;48.298;10.008;2022-10-15T10:14:55;16.40;99.90
35962;DHT22;22044;48.298;10.008;2022-10-15T10:17:51;16.40;99.90
35962;DHT22;22044;48.298;10.008;2022-10-15T10:20:55;16.30;99.90
35962;DHT22;22044;48.298;10.008;2022-10-15T10:23:42;16.40;99.90
35962;DHT22;22044;48.298;10.008;2022-10-15T10:26:33;16.30;99.90
35962;DHT22;22044;48.298;10.008;2022-10-15T10:29:20;16.40;99.90
35962;DHT22;22044;48.298;10.008;2022-10-15T10:32:11;16.30;99.90
35962;DHT22;22044;48.298;10.008;2022-10-15T10:35:03;16.40;99.90
35962;DHT22;22044;48.298;10.008;2022-10-15T10:37:49;16.40;99.90
35962;DHT22;22044;48.298;10.008;2022-10-15T10:40:35;16.50;99.90
35962;DHT22;22044;48.298;10.008;2022-10-15T10:43:27;16.40;99.90
35962;DHT22;22044;48.298;10.008;2022-10-15T10:46:17;16.30;99.90
35962;DHT22;22044;48.298;10.008;2022-10-15T10:49:07;16.30;99.90
35962;DHT22;22044;48.298;10.008;2022-10-15T10:51:53;16.30;99.90
35962;DHT22;22044;48.298;10.008;2022-10-15T10:54:39;16.30;99.90
35962;DHT22;22044;48.298;10.008;2022-10-15T10:57:39;16.30;99.90
35962;DHT22;22044;48.298;10.008;2022-10-15T11:00:34;16.40;99.90
35962;DHT22;22044;48.298;10.008;2022-10-15T11:03:31;16.40;99.90
35962;DHT22;22044;48.298;10.008;2022-10-15T11:06:33;16.40;99.90
35962;DHT22;22044;48.298;10.008;2022-10-15T11:09:45;16.50;99.90
35962;DHT22;22044;48.298;10.008;2022-10-15T11:12:53;16.60;99.90
35962;DHT22;22044;48.298;10.008;2022-10-15T11:15:46;16.70;99.90
35962;DHT22;22044;48.298;10.008;2022-10-15T11:18:51;17.00;99.90
35962;DHT22;22044;48.298;10.008;2022-10-15T11:21:46;17.10;99.90
35962;DHT22;22044;48.298;10.008;2022-10-15T11:24:39;17.30;99.90
35962;DHT22;22044;48.298;10.008;2022-10-15T11:27:44;17.30;99.90
35962;DHT22;22044;48.298;10.008;2022-10-15T11:30:40;17.20;99.90
35962;DHT22;22044;48.298;10.008;2022-10-15T11:33:50;17.10;99.90
35962;DHT22;22044;48.298;10.008;2022-10-15T11:36:57;17.10;99.90
35962;DHT22;22044;48.298;10.008;2022-10-15T11:39:53;17.10;99.90
35962;DHT22;22044;48.298;10.008;2022-10-15T11:42:50;17.10;99.90
35962;DHT22;22044;48.298;10.008;2022-10-15T11:45:57;17.20;99.90
35962;DHT22;22044;48.298;10.008;2022-10-15T11:48:53;17.20;99.90
35962;DHT22;22044;48.298;10.008;2022-10-15T11:51:57;17.20;99.90
35962;DHT22;22044;48.298;10.008;2022-10-15T11:54:54;17.20;99.90
35962;DHT22;22044;48.298;10.008;2022-10-15T11:57:47;17.20;99.90
35962;DHT22;22044;48.298;10.008;2022-10-15T12:00:36;17.40;99.90
35962;DHT22;22044;48.298;10.008;2022-10-15T12:03:26;17.50;99.90
35962;DHT22;22044;48.298;10.008;2022-10-15T12:06:15;17.60;99.90
35962;DHT22;22044;48.298;10.008;2022-10-15T12:09:03;17.70;99.90
35962;DHT22;22044;48.298;10.008;2022-10-15T12:11:54;17.70;99.90
35962;DHT22;22044;48.298;10.008;2022-10-15T12:14:48;17.60;99.90
35962;DHT22;22044;48.298;10.008;2022-10-15T12:17:42;17.60;99.90
35962;DHT22;22044;48.298;10.008;2022-10-15T12:20:30;17.70;99.90
35962;DHT22;22044;48.298;10.008;2022-10-15T12:23:23;17.70;99.90
35962;DHT22;22044;48.298;10.008;2022-10-15T12:26:26;17.50;99.90
35962;DHT22;22044;48.298;10.008;2022-10-15T12:29:19;17.50;99.90
35962;DHT22;22044;48.298;10.008;2022-10-15T12:32:21;17.50;99.90
35962;DHT22;22044;48.298;10.008;2022-10-15T12:35:19;17.50;99.90
35962;DHT22;22044;48.298;10.008;2022-10-15T12:38:18;17.50;99.90
35962;DHT22;22044;48.298;10.008;2022-10-15T12:41:07;17.40;99.90
35962;DHT22;22044;48.298;10.008;2022-10-15T12:44:04;17.50;99.90
35962;DHT22;22044;48.298;10.008;2022-10-15T12:46:51;17.50;99.90
35962;DHT22;22044;48.298;10.008;2022-10-15T12:49:54;17.50;99.90
35962;DHT22;22044;48.298;10.008;2022-10-15T12:53:00;17.60;99.90
35962;DHT22;22044;48.298;10.008;2022-10-15T12:56:12;17.50;99.90
35962;DHT22;22044;48.298;10.008;2022-10-15T12:59:02;17.50;99.90
35962;DHT22;22044;48.298;10.008;2022-10-15T13:01:51;17.40;99.90
35962;DHT22;22044;48.298;10.008;2022-10-15T13:04:38;17.40;99.90
35962;DHT22;22044;48.298;10.008;2022-10-15T13:07:26;17.30;99.90
35962;DHT22;22044;48.298;10.008;2022-10-15T13:10:18;17.30;99.90
35962;DHT22;22044;48.298;10.008;2022-10-15T13:13:11;17.40;99.90
35962;DHT22;22044;48.298;10.008;2022-10-15T13:15:59;17.50;99.90
35962;DHT22;22044;48.298;10.008;2022-10-15T13:18:48;17.70;99.90
35962;DHT22;22044;48.298;10.008;2022-10-15T13:21:49;17.90;99.90
35962;DHT22;22044;48.298;10.008;2022-10-15T13:24:40;18.00;99.90
35962;DHT22;22044;48.298;10.008;2022-10-15T13:27:33;18.10;99.90
35962;DHT22;22044;48.298;10.008;2022-10-15T13:30:21;18.10;99.90
35962;DHT22;22044;48.298;10.008;2022-10-15T13:33:08;17.90;99.90
35962;DHT22;22044;48.298;10.008;2022-10-15T13:35:55;17.80;99.90
35962;DHT22;22044;48.298;10.008;2022-10-15T13:38:57;17.80;99.90
35962;DHT22;22044;48.298;10.008;2022-10-15T13:41:43;17.80;99.90
35962;DHT22;22044;48.298;10.008;2022-10-15T13:44:29;17.90;99.90
35962;DHT22;22044;48.298;10.008;2022-10-15T13:47:36;17.80;99.90
35962;DHT22;22044;48.298;10.008;2022-10-15T13:50:25;17.80;99.90
35962;DHT22;22044;48.298;10.008;2022-10-15T13:53:24;17.70;99.90
35962;DHT22;22044;48.298;10.008;2022-10-15T13:56:20;17.80;99.90
35962;DHT22;22044;48.298;10.008;2022-10-15T13:59:15;17.70;99.90
35962;DHT22;22044;48.298;10.008;2022-10-15T14:02:01;17.60;99.90
35962;DHT22;22044;48.298;10.008;2022-10-15T14:04:47;17.60;99.90
35962;DHT22;22044;48.298;10.008;2022-10-15T14:07:34;17.50;99.90
35962;DHT22;22044;48.298;10.008;2022-10-15T14:10:19;17.50;99.90
35962;DHT22;22044;48.298;10.008;2022-10-15T14:13:07;17.50;99.90
35962;DHT22;22044;48.298;10.008;2022-10-15T14:15:58;17.60;99.90
35962;DHT22;22044;48.298;10.008;2022-10-15T14:18:46;17.70;99.90
35962;DHT22;22044;48.298;10.008;2022-10-15T14:21:33;17.80;99.90
35962;DHT22;22044;48.298;10.008;2022-10-15T14:24:22;17.70;99.90
35962;DHT22;22044;48.298;10.008;2022-10-15T14:27:13;17.70;99.90
35962;DHT22;22044;48.298;10.008;2022-10-15T14:30:00;17.70;99.90
35962;DHT22;22044;48.298;10.008;2022-10-15T14:32:47;17.60;99.90
35962;DHT22;22044;48.298;10.008;2022-10-15T14:35:36;17.30;99.90
35962;DHT22;22044;48.298;10.008;2022-10-15T14:38:25;17.20;99.90
35962;DHT22;22044;48.298;10.008;2022-10-15T14:41:27;17.20;99.90
35962;DHT22;22044;48.298;10.008;2022-10-15T14:44:17;17.20;99.90
35962;DHT22;22044;48.298;10.008;2022-10-15T14:47:03;17.20;99.90
35962;DHT22;22044;48.298;10.008;2022-10-15T14:49:51;17.10;99.90
35962;DHT22;22044;48.298;10.008;2022-10-15T14:52:43;17.10;99.90
35962;DHT22;22044;48.298;10.008;2022-10-15T14:55:31;17.00;99.90
35962;DHT22;22044;48.298;10.008;2022-10-15T14:58:24;17.00;99.90
35962;DHT22;22044;48.298;10.008;2022-10-15T15:01:14;17.10;99.90
35962;DHT22;22044;48.298;10.008;2022-10-15T15:04:00;17.10;99.90
35962;DHT22;22044;48.298;10.008;2022-10-15T15:06:45;17.20;99.90
35962;DHT22;22044;48.298;10.008;2022-10-15T15:09:32;17.40;99.90
35962;DHT22;22044;48.298;10.008;2022-10-15T15:12:20;17.40;99.90
35962;DHT22;22044;48.298;10.008;2022-10-15T15:15:12;17.40;99.90
35962;DHT22;22044;48.298;10.008;2022-10-15T15:17:59;17.40;99.90
35962;DHT22;22044;48.298;10.008;2022-10-15T15:20:45;17.20;99.90
35962;DHT22;22044;48.298;10.008;2022-10-15T15:23:32;17.30;99.90
35962;DHT22;22044;48.298;10.008;2022-10-15T15:26:18;17.20;99.90
35962;DHT22;22044;48.298;10.008;2022-10-15T15:29:10;17.10;99.90
35962;DHT22;22044;48.298;10.008;2022-10-15T15:31:57;17.10;99.90
35962;DHT22;22044;48.298;10.008;2022-10-15T15:34:43;17.00;99.90
35962;DHT22;22044;48.298;10.008;2022-10-15T15:37:28;17.00;99.90
35962;DHT22;22044;48.298;10.008;2022-10-15T15:40:15;16.90;99.90
35962;DHT22;22044;48.298;10.008;2022-10-15T15:43:01;16.80;99.90
35962;DHT22;22044;48.298;10.008;2022-10-15T15:45:46;16.80;99.90
35962;DHT22;22044;48.298;10.008;2022-10-15T15:48:33;16.70;99.90
35962;DHT22;22044;48.298;10.008;2022-10-15T15:51:21;16.70;99.90
35962;DHT22;22044;48.298;10.008;2022-10-15T15:54:07;16.70;99.90
35962;DHT22;22044;48.298;10.008;2022-10-15T15:56:53;16.70;99.90
35962;DHT22;22044;48.298;10.008;2022-10-15T15:59:39;16.70;99.90
35962;DHT22;22044;48.298;10.008;2022-10-15T16:02:28;16.60;99.90
35962;DHT22;22044;48.298;10.008;2022-10-15T16:05:15;16.60;99.90
35962;DHT22;22044;48.298;10.008;2022-10-15T16:08:01;16.50;99.90
35962;DHT22;22044;48.298;10.008;2022-10-15T16:10:47;16.50;99.90
35962;DHT22;22044;48.298;10.008;2022-10-15T16:13:35;16.40;99.90
35962;DHT22;22044;48.298;10.008;2022-10-15T16:16:20;16.30;99.90
35962;DHT22;22044;48.298;10.008;2022-10-15T16:19:07;16.30;99.90
35962;DHT22;22044;48.298;10.008;2022-10-15T16:21:54;16.30;99.90
35962;DHT22;22044;48.298;10.008;2022-10-15T16:24:42;16.20;99.90
35962;DHT22;22044;48.298;10.008;2022-10-15T16:27:27;16.20;99.90
35962;DHT22;22044;48.298;10.008;2022-10-15T16:30:13;16.10;99.90
35962;DHT22;22044;48.298;10.008;2022-10-15T16:32:59;16.10;99.90
35962;DHT22;22044;48.298;10.008;2022-10-15T16:35:50;16.10;99.90
35962;DHT22;22044;48.298;10.008;2022-10-15T16:38:39;16.10;99.90
35962;DHT22;22044;48.298;10.008;2022-10-15T16:41:24;16.10;99.90
35962;DHT22;22044;48.298;10.008;2022-10-15T16:44:10;16.00;99.90
35962;DHT22;22044;48.298;10.008;2022-10-15T16:46:56;16.00;99.90
35962;DHT22;22044;48.298;10.008;2022-10-15T16:49:42;15.90;99.90
35962;DHT22;22044;48.298;10.008;2022-10-15T16:52:32;15.80;99.90
35962;DHT22;22044;48.298;10.008;2022-10-15T16:55:18;15.80;99.90
35962;DHT22;22044;48.298;10.008;2022-10-15T16:58:04;15.70;99.90
35962;DHT22;22044;48.298;10.008;2022-10-15T17:00:50;15.70;99.90
35962;DHT22;22044;48.298;10.008;2022-10-15T17:03:37;15.60;99.90
35962;DHT22;22044;48.298;10.008;2022-10-15T17:06:27;15.50;99.90
35962;DHT22;22044;48.298;10.008;2022-10-15T17:09:13;15.50;99.90
35962;DHT22;22044;48.298;10.008;2022-10-15T17:12:00;15.50;99.90
35962;DHT22;22044;48.298;10.008;2022-10-15T17:14:48;15.50;99.90
35962;DHT22;22044;48.298;10.008;2022-10-15T17:17:35;15.40;99.90
35962;DHT22;22044;48.298;10.008;2022-10-15T17:20:20;15.40;99.90
35962;DHT22;22044;48.298;10.008;2022-10-15T17:23:05;15.30;99.90
35962;DHT22;22044;48.298;10.008;2022-10-15T17:25:51;15.20;99.90
35962;DHT22;22044;48.298;10.008;2022-10-15T17:28:38;15.30;99.90
35962;DHT22;22044;48.298;10.008;2022-10-15T17:31:28;15.20;99.90
35962;DHT22;22044;48.298;10.008;2022-10-15T17:34:14;15.10;99.90
35962;DHT22;22044;48.298;10.008;2022-10-15T17:36:59;15.10;99.90
35962;DHT22;22044;48.298;10.008;2022-10-15T17:39:45;15.00;99.90
35962;DHT22;22044;48.298;10.008;2022-10-15T17:42:30;15.00;99.90